sensor_id;sensor_type;location;lat;lon;timestamp;P1;durP1;ratioP1;P2;durP2;ratioP2
1258;SDS011;619;51.472;6.628;2023-03-24T00:01:44;3.63;;;2.20;;
1258;SDS011;619;51.472;6.628;2023-03-24T00:04:10;2.00;;;1.70;;
1258;SDS011;619;51.472;6.628;2023-03-24T00:06:38;3.10;;;2.10;;
1258;SDS011;619;51.472;6.628;2023-03-24T00:09:04;2.07;;;1.53;;
1258;SDS011;619;51.472;6.628;2023-03-24T00:11:32;2.80;;;2.40;;
1258;SDS011;619;51.472;6.628;2023-03-24T00:13:58;3.13;;;1.60;;
1258;SDS011;619;51.472;6.628;2023-03-24T00:16:30;2.87;;;1.90;;
1258;SDS011;619;51.472;6.628;2023-03-24T00:18:59;2.90;;;1.43;;
1258;SDS011;619;51.472;6.628;2023-03-24T00:21:27;1.97;;;1.70;;
1258;SDS011;619;51.472;6.628;2023-03-24T00:23:56;3.50;;;1.90;;
1258;SDS011;619;51.472;6.628;2023-03-24T00:26:22;3.33;;;1.80;;
1258;SDS011;619;51.472;6.628;2023-03-24T00:28:52;3.03;;;2.13;;
1258;SDS011;619;51.472;6.628;2023-03-24T00:31:22;3.17;;;1.57;;
1258;SDS011;619;51.472;6.628;2023-03-24T00:33:50;2.67;;;1.87;;
1258;SDS011;619;51.472;6.628;2023-03-24T00:36:22;3.67;;;1.77;;
1258;SDS011;619;51.472;6.628;2023-03-24T00:38:53;2.23;;;1.90;;
1258;SDS011;619;51.472;6.628;2023-03-24T00:41:22;7.40;;;1.90;;
1258;SDS011;619;51.472;6.628;2023-03-24T00:43:55;2.50;;;2.00;;
1258;SDS011;619;51.472;6.628;2023-03-24T00:46:23;2.87;;;1.50;;
1258;SDS011;619;51.472;6.628;2023-03-24T00:49:02;3.50;;;1.67;;
1258;SDS011;619;51.472;6.628;2023-03-24T00:51:34;1.70;;;1.47;;
1258;SDS011;619;51.472;6.628;2023-03-24T00:54:02;1.83;;;1.63;;
1258;SDS011;619;51.472;6.628;2023-03-24T00:56:32;2.50;;;1.53;;
1258;SDS011;619;51.472;6.628;2023-03-24T00:58:59;4.00;;;2.47;;
1258;SDS011;619;51.472;6.628;2023-03-24T01:01:27;2.53;;;2.00;;
1258;SDS011;619;51.472;6.628;2023-03-24T01:04:00;1.70;;;1.50;;
1258;SDS011;619;51.472;6.628;2023-03-24T01:06:29;2.10;;;1.70;;
1258;SDS011;619;51.472;6.628;2023-03-24T01:08:57;3.70;;;1.97;;
1258;SDS011;619;51.472;6.628;2023-03-24T01:11:23;4.40;;;2.43;;
1258;SDS011;619;51.472;6.628;2023-03-24T01:13:53;4.67;;;2.40;;
1258;SDS011;619;51.472;6.628;2023-03-24T01:16:24;1.67;;;1.57;;
1258;SDS011;619;51.472;6.628;2023-03-24T01:18:50;1.90;;;1.50;;
1258;SDS011;619;51.472;6.628;2023-03-24T01:21:16;2.43;;;1.70;;
1258;SDS011;619;51.472;6.628;2023-03-24T01:23:42;3.10;;;1.50;;
1258;SDS011;619;51.472;6.628;2023-03-24T01:26:08;2.50;;;1.87;;
1258;SDS011;619;51.472;6.628;2023-03-24T01:28:37;2.10;;;1.50;;
1258;SDS011;619;51.472;6.628;2023-03-24T01:31:08;2.30;;;2.10;;
1258;SDS011;619;51.472;6.628;2023-03-24T01:33:35;3.43;;;2.10;;
1258;SDS011;619;51.472;6.628;2023-03-24T01:36:02;2.03;;;1.83;;
1258;SDS011;619;51.472;6.628;2023-03-24T01:38:28;2.40;;;1.80;;
1258;SDS011;619;51.472;6.628;2023-03-24T01:40:54;1.90;;;1.70;;
1258;SDS011;619;51.472;6.628;2023-03-24T01:43:23;2.10;;;1.80;;
1258;SDS011;619;51.472;6.628;2023-03-24T01:48:55;3.23;;;1.90;;
1258;SDS011;619;51.472;6.628;2023-03-24T01:51:34;2.50;;;2.07;;
1258;SDS011;619;51.472;6.628;2023-03-24T01:57:07;2.20;;;1.97;;
1258;SDS011;619;51.472;6.628;2023-03-24T01:59:37;4.27;;;2.00;;
1258;SDS011;619;51.472;6.628;2023-03-24T02:02:06;2.97;;;2.53;;
1258;SDS011;619;51.472;6.628;2023-03-24T02:04:36;4.27;;;2.20;;
1258;SDS011;619;51.472;6.628;2023-03-24T02:10:17;2.80;;;2.10;;
1258;SDS011;619;51.472;6.628;2023-03-24T02:12:47;3.63;;;2.23;;
1258;SDS011;619;51.472;6.628;2023-03-24T02:15:14;3.80;;;2.47;;
1258;SDS011;619;51.472;6.628;2023-03-24T02:28:17;2.50;;;2.30;;
1258;SDS011;619;51.472;6.628;2023-03-24T02:44:33;2.97;;;2.37;;
1258;SDS011;619;51.472;6.628;2023-03-24T02:55:01;3.23;;;2.47;;
1258;SDS011;619;51.472;6.628;2023-03-24T02:57:46;3.10;;;2.47;;
1258;SDS011;619;51.472;6.628;2023-03-24T03:02:51;2.70;;;2.50;;
1258;SDS011;619;51.472;6.628;2023-03-24T03:05:33;2.80;;;2.50;;
1258;SDS011;619;51.472;6.628;2023-03-24T03:08:08;3.20;;;2.90;;
1258;SDS011;619;51.472;6.628;2023-03-24T03:10:45;5.20;;;2.30;;
1258;SDS011;619;51.472;6.628;2023-03-24T03:13:15;2.47;;;2.27;;
1258;SDS011;619;51.472;6.628;2023-03-24T03:16:04;2.67;;;2.00;;
1258;SDS011;619;51.472;6.628;2023-03-24T03:18:36;3.23;;;2.83;;
1258;SDS011;619;51.472;6.628;2023-03-24T03:21:11;2.53;;;2.33;;
1258;SDS011;619;51.472;6.628;2023-03-24T03:23:41;3.30;;;3.00;;
1258;SDS011;619;51.472;6.628;2023-03-24T03:26:28;3.27;;;2.60;;
1258;SDS011;619;51.472;6.628;2023-03-24T03:29:00;2.53;;;2.33;;
1258;SDS011;619;51.472;6.628;2023-03-24T03:31:34;2.80;;;2.17;;
1258;SDS011;619;51.472;6.628;2023-03-24T03:39:28;2.60;;;2.10;;
1258;SDS011;619;51.472;6.628;2023-03-24T03:42:00;3.23;;;1.90;;
1258;SDS011;619;51.472;6.628;2023-03-24T03:44:27;2.30;;;2.10;;
1258;SDS011;619;51.472;6.628;2023-03-24T03:46:52;2.33;;;2.13;;
1258;SDS011;619;51.472;6.628;2023-03-24T03:49:19;2.70;;;2.10;;
1258;SDS011;619;51.472;6.628;2023-03-24T03:51:49;3.30;;;2.10;;
1258;SDS011;619;51.472;6.628;2023-03-24T03:54:16;2.80;;;2.50;;
1258;SDS011;619;51.472;6.628;2023-03-24T03:56:45;3.20;;;2.20;;
1258;SDS011;619;51.472;6.628;2023-03-24T03:59:24;2.40;;;2.20;;
1258;SDS011;619;51.472;6.628;2023-03-24T04:15:44;2.80;;;2.00;;
1258;SDS011;619;51.472;6.628;2023-03-24T04:26:27;2.80;;;1.80;;
1258;SDS011;619;51.472;6.628;2023-03-24T04:34:18;3.60;;;1.87;;
1258;SDS011;619;51.472;6.628;2023-03-24T04:36:59;2.13;;;1.73;;
1258;SDS011;619;51.472;6.628;2023-03-24T04:39:35;1.97;;;1.70;;
1258;SDS011;619;51.472;6.628;2023-03-24T04:42:11;3.30;;;1.73;;
1258;SDS011;619;51.472;6.628;2023-03-24T04:44:49;1.50;;;1.40;;
1258;SDS011;619;51.472;6.628;2023-03-24T04:47:21;1.77;;;1.30;;
1258;SDS011;619;51.472;6.628;2023-03-24T04:49:59;3.30;;;2.20;;
1258;SDS011;619;51.472;6.628;2023-03-24T04:52:30;2.23;;;1.47;;
1258;SDS011;619;51.472;6.628;2023-03-24T04:55:12;2.00;;;1.47;;
1258;SDS011;619;51.472;6.628;2023-03-24T04:57:58;1.47;;;1.37;;
1258;SDS011;619;51.472;6.628;2023-03-24T05:00:27;2.37;;;1.90;;
1258;SDS011;619;51.472;6.628;2023-03-24T05:02:52;3.57;;;2.20;;
1258;SDS011;619;51.472;6.628;2023-03-24T05:05:20;2.87;;;2.10;;
1258;SDS011;619;51.472;6.628;2023-03-24T05:07:46;1.83;;;1.73;;
1258;SDS011;619;51.472;6.628;2023-03-24T05:10:14;4.37;;;2.30;;
1258;SDS011;619;51.472;6.628;2023-03-24T05:12:41;3.50;;;2.70;;
1258;SDS011;619;51.472;6.628;2023-03-24T05:15:08;3.30;;;2.60;;
1258;SDS011;619;51.472;6.628;2023-03-24T05:17:34;3.27;;;2.67;;
1258;SDS011;619;51.472;6.628;2023-03-24T05:20:00;3.13;;;2.40;;
1258;SDS011;619;51.472;6.628;2023-03-24T05:22:30;2.77;;;2.03;;
1258;SDS011;619;51.472;6.628;2023-03-24T05:24:58;3.03;;;2.00;;
1258;SDS011;619;51.472;6.628;2023-03-24T05:27:24;3.93;;;2.23;;
1258;SDS011;619;51.472;6.628;2023-03-24T05:29:50;2.50;;;1.90;;
1258;SDS011;619;51.472;6.628;2023-03-24T05:32:17;3.37;;;2.00;;
1258;SDS011;619;51.472;6.628;2023-03-24T05:34:48;5.10;;;1.50;;
1258;SDS011;619;51.472;6.628;2023-03-24T05:37:16;4.93;;;1.90;;
1258;SDS011;619;51.472;6.628;2023-03-24T05:39:42;3.80;;;1.63;;
1258;SDS011;619;51.472;6.628;2023-03-24T05:42:08;2.17;;;1.97;;
1258;SDS011;619;51.472;6.628;2023-03-24T05:44:36;6.73;;;1.67;;
1258;SDS011;619;51.472;6.628;2023-03-24T05:47:02;6.63;;;2.50;;
1258;SDS011;619;51.472;6.628;2023-03-24T05:49:28;4.50;;;1.83;;
1258;SDS011;619;51.472;6.628;2023-03-24T05:51:56;3.03;;;1.70;;
1258;SDS011;619;51.472;6.628;2023-03-24T05:54:21;8.33;;;2.23;;
1258;SDS011;619;51.472;6.628;2023-03-24T05:56:47;3.70;;;1.77;;
1258;SDS011;619;51.472;6.628;2023-03-24T05:59:13;3.40;;;1.37;;
1258;SDS011;619;51.472;6.628;2023-03-24T06:01:39;4.27;;;1.83;;
1258;SDS011;619;51.472;6.628;2023-03-24T06:04:12;5.67;;;1.60;;
1258;SDS011;619;51.472;6.628;2023-03-24T06:06:42;4.07;;;1.60;;
1258;SDS011;619;51.472;6.628;2023-03-24T06:09:10;3.47;;;1.30;;
1258;SDS011;619;51.472;6.628;2023-03-24T06:11:38;4.13;;;1.80;;
1258;SDS011;619;51.472;6.628;2023-03-24T06:14:04;4.60;;;1.53;;
1258;SDS011;619;51.472;6.628;2023-03-24T06:16:31;3.70;;;1.60;;
1258;SDS011;619;51.472;6.628;2023-03-24T06:18:58;4.80;;;1.50;;
1258;SDS011;619;51.472;6.628;2023-03-24T06:21:26;5.53;;;2.33;;
1258;SDS011;619;51.472;6.628;2023-03-24T06:23:55;3.97;;;1.77;;
1258;SDS011;619;51.472;6.628;2023-03-24T06:26:23;5.70;;;2.10;;
1258;SDS011;619;51.472;6.628;2023-03-24T06:28:54;3.87;;;1.70;;
1258;SDS011;619;51.472;6.628;2023-03-24T06:31:20;5.07;;;1.47;;
1258;SDS011;619;51.472;6.628;2023-03-24T06:33:49;6.20;;;1.83;;
1258;SDS011;619;51.472;6.628;2023-03-24T06:36:20;5.73;;;2.23;;
1258;SDS011;619;51.472;6.628;2023-03-24T06:38:52;7.10;;;2.13;;
1258;SDS011;619;51.472;6.628;2023-03-24T06:41:17;6.67;;;2.03;;
1258;SDS011;619;51.472;6.628;2023-03-24T06:43:45;4.73;;;1.77;;
1258;SDS011;619;51.472;6.628;2023-03-24T06:46:11;8.10;;;2.03;;
1258;SDS011;619;51.472;6.628;2023-03-24T06:48:38;6.17;;;1.77;;
1258;SDS011;619;51.472;6.628;2023-03-24T06:51:04;7.07;;;1.70;;
1258;SDS011;619;51.472;6.628;2023-03-24T06:53:32;6.97;;;1.57;;
1258;SDS011;619;51.472;6.628;2023-03-24T06:55:58;6.47;;;1.80;;
1258;SDS011;619;51.472;6.628;2023-03-24T06:58:24;10.53;;;2.00;;
1258;SDS011;619;51.472;6.628;2023-03-24T07:00:49;4.73;;;1.83;;
1258;SDS011;619;51.472;6.628;2023-03-24T07:03:15;5.40;;;1.50;;
1258;SDS011;619;51.472;6.628;2023-03-24T07:05:41;3.33;;;1.63;;
1258;SDS011;619;51.472;6.628;2023-03-24T07:08:08;5.47;;;1.80;;
1258;SDS011;619;51.472;6.628;2023-03-24T07:10:40;6.27;;;2.10;;
1258;SDS011;619;51.472;6.628;2023-03-24T07:13:06;6.00;;;1.70;;
1258;SDS011;619;51.472;6.628;2023-03-24T07:15:34;6.57;;;1.70;;
1258;SDS011;619;51.472;6.628;2023-03-24T07:18:00;5.07;;;2.17;;
1258;SDS011;619;51.472;6.628;2023-03-24T07:20:27;9.57;;;2.10;;
1258;SDS011;619;51.472;6.628;2023-03-24T07:22:55;8.37;;;2.13;;
1258;SDS011;619;51.472;6.628;2023-03-24T07:25:21;7.27;;;2.33;;
1258;SDS011;619;51.472;6.628;2023-03-24T07:27:48;4.77;;;2.03;;
1258;SDS011;619;51.472;6.628;2023-03-24T07:30:17;5.53;;;1.80;;
1258;SDS011;619;51.472;6.628;2023-03-24T07:32:45;7.07;;;1.80;;
1258;SDS011;619;51.472;6.628;2023-03-24T07:35:13;6.67;;;1.40;;
1258;SDS011;619;51.472;6.628;2023-03-24T07:37:42;6.33;;;2.30;;
1258;SDS011;619;51.472;6.628;2023-03-24T07:40:08;7.90;;;2.80;;
1258;SDS011;619;51.472;6.628;2023-03-24T07:42:39;7.03;;;2.13;;
1258;SDS011;619;51.472;6.628;2023-03-24T07:45:09;6.17;;;2.30;;
1258;SDS011;619;51.472;6.628;2023-03-24T07:47:37;6.57;;;1.80;;
1258;SDS011;619;51.472;6.628;2023-03-24T07:50:04;6.00;;;2.00;;
1258;SDS011;619;51.472;6.628;2023-03-24T07:52:34;5.50;;;1.73;;
1258;SDS011;619;51.472;6.628;2023-03-24T07:55:01;3.60;;;1.53;;
1258;SDS011;619;51.472;6.628;2023-03-24T07:57:29;8.80;;;2.20;;
1258;SDS011;619;51.472;6.628;2023-03-24T08:00:01;8.00;;;2.33;;
1258;SDS011;619;51.472;6.628;2023-03-24T08:02:39;7.03;;;2.60;;
1258;SDS011;619;51.472;6.628;2023-03-24T08:05:05;6.53;;;2.00;;
1258;SDS011;619;51.472;6.628;2023-03-24T08:07:34;4.90;;;1.53;;
1258;SDS011;619;51.472;6.628;2023-03-24T08:10:00;7.20;;;1.93;;
1258;SDS011;619;51.472;6.628;2023-03-24T08:12:30;7.07;;;1.83;;
1258;SDS011;619;51.472;6.628;2023-03-24T08:14:56;6.63;;;2.10;;
1258;SDS011;619;51.472;6.628;2023-03-24T08:17:21;7.00;;;2.40;;
1258;SDS011;619;51.472;6.628;2023-03-24T08:19:47;4.57;;;1.30;;
1258;SDS011;619;51.472;6.628;2023-03-24T08:22:12;7.03;;;2.23;;
1258;SDS011;619;51.472;6.628;2023-03-24T08:24:38;5.23;;;2.27;;
1258;SDS011;619;51.472;6.628;2023-03-24T08:27:04;7.10;;;2.20;;
1258;SDS011;619;51.472;6.628;2023-03-24T08:29:31;6.60;;;1.77;;
1258;SDS011;619;51.472;6.628;2023-03-24T08:31:59;5.20;;;1.70;;
1258;SDS011;619;51.472;6.628;2023-03-24T08:34:28;11.73;;;2.57;;
1258;SDS011;619;51.472;6.628;2023-03-24T08:36:53;7.07;;;2.27;;
1258;SDS011;619;51.472;6.628;2023-03-24T08:39:19;7.17;;;2.50;;
1258;SDS011;619;51.472;6.628;2023-03-24T08:41:48;9.93;;;3.00;;
1258;SDS011;619;51.472;6.628;2023-03-24T08:44:16;6.03;;;2.37;;
1258;SDS011;619;51.472;6.628;2023-03-24T08:46:44;6.77;;;2.27;;
1258;SDS011;619;51.472;6.628;2023-03-24T08:49:10;6.17;;;2.10;;
1258;SDS011;619;51.472;6.628;2023-03-24T08:51:36;6.33;;;2.87;;
1258;SDS011;619;51.472;6.628;2023-03-24T08:54:04;6.27;;;2.13;;
1258;SDS011;619;51.472;6.628;2023-03-24T08:56:30;8.40;;;2.37;;
1258;SDS011;619;51.472;6.628;2023-03-24T08:58:56;7.53;;;3.03;;
1258;SDS011;619;51.472;6.628;2023-03-24T09:01:23;8.47;;;2.93;;
1258;SDS011;619;51.472;6.628;2023-03-24T09:03:49;6.10;;;2.20;;
1258;SDS011;619;51.472;6.628;2023-03-24T09:06:16;8.33;;;2.70;;
1258;SDS011;619;51.472;6.628;2023-03-24T09:08:46;7.93;;;2.40;;
1258;SDS011;619;51.472;6.628;2023-03-24T09:11:15;6.67;;;2.73;;
1258;SDS011;619;51.472;6.628;2023-03-24T09:13:45;11.03;;;2.97;;
1258;SDS011;619;51.472;6.628;2023-03-24T09:16:11;9.43;;;2.70;;
1258;SDS011;619;51.472;6.628;2023-03-24T09:18:36;4.90;;;2.10;;
1258;SDS011;619;51.472;6.628;2023-03-24T09:21:03;5.87;;;2.13;;
1258;SDS011;619;51.472;6.628;2023-03-24T09:23:29;6.40;;;2.20;;
1258;SDS011;619;51.472;6.628;2023-03-24T09:25:55;7.07;;;3.43;;
1258;SDS011;619;51.472;6.628;2023-03-24T09:28:21;2.93;;;1.70;;
1258;SDS011;619;51.472;6.628;2023-03-24T09:30:54;8.60;;;2.63;;
1258;SDS011;619;51.472;6.628;2023-03-24T09:33:24;7.93;;;2.53;;
1258;SDS011;619;51.472;6.628;2023-03-24T09:35:54;6.23;;;1.93;;
1258;SDS011;619;51.472;6.628;2023-03-24T09:38:23;12.83;;;3.00;;
1258;SDS011;619;51.472;6.628;2023-03-24T09:40:54;11.60;;;2.43;;
1258;SDS011;619;51.472;6.628;2023-03-24T09:46:40;6.43;;;2.07;;
1258;SDS011;619;51.472;6.628;2023-03-24T09:49:11;6.00;;;2.43;;
1258;SDS011;619;51.472;6.628;2023-03-24T09:51:42;8.63;;;2.73;;
1258;SDS011;619;51.472;6.628;2023-03-24T09:54:30;5.00;;;2.07;;
1258;SDS011;619;51.472;6.628;2023-03-24T09:57:21;7.70;;;2.60;;
1258;SDS011;619;51.472;6.628;2023-03-24T09:59:56;6.50;;;2.90;;
1258;SDS011;619;51.472;6.628;2023-03-24T10:02:22;5.27;;;2.13;;
1258;SDS011;619;51.472;6.628;2023-03-24T10:04:48;7.90;;;2.77;;
1258;SDS011;619;51.472;6.628;2023-03-24T10:09:59;7.60;;;2.27;;
1258;SDS011;619;51.472;6.628;2023-03-24T10:12:44;8.30;;;2.23;;
1258;SDS011;619;51.472;6.628;2023-03-24T10:34:52;6.33;;;1.90;;
1258;SDS011;619;51.472;6.628;2023-03-24T10:37:21;6.40;;;1.70;;
1258;SDS011;619;51.472;6.628;2023-03-24T10:39:47;4.93;;;1.90;;
1258;SDS011;619;51.472;6.628;2023-03-24T10:42:14;3.50;;;1.40;;
1258;SDS011;619;51.472;6.628;2023-03-24T10:44:51;7.40;;;3.07;;
1258;SDS011;619;51.472;6.628;2023-03-24T10:47:17;4.07;;;1.77;;
1258;SDS011;619;51.472;6.628;2023-03-24T10:49:53;6.47;;;2.20;;
1258;SDS011;619;51.472;6.628;2023-03-24T10:52:19;5.87;;;2.50;;
1258;SDS011;619;51.472;6.628;2023-03-24T10:54:58;8.40;;;1.90;;
1258;SDS011;619;51.472;6.628;2023-03-24T10:57:32;7.17;;;2.23;;
1258;SDS011;619;51.472;6.628;2023-03-24T11:00:08;5.30;;;2.10;;
1258;SDS011;619;51.472;6.628;2023-03-24T11:02:44;8.40;;;2.23;;
1258;SDS011;619;51.472;6.628;2023-03-24T11:05:26;7.67;;;4.03;;
1258;SDS011;619;51.472;6.628;2023-03-24T11:10:52;6.53;;;2.50;;
1258;SDS011;619;51.472;6.628;2023-03-24T11:18:36;7.33;;;2.13;;
1258;SDS011;619;51.472;6.628;2023-03-24T11:21:02;5.70;;;2.10;;
1258;SDS011;619;51.472;6.628;2023-03-24T11:23:36;4.63;;;2.03;;
1258;SDS011;619;51.472;6.628;2023-03-24T11:26:07;5.17;;;2.00;;
1258;SDS011;619;51.472;6.628;2023-03-24T11:28:40;6.57;;;2.10;;
1258;SDS011;619;51.472;6.628;2023-03-24T11:31:12;3.83;;;2.10;;
1258;SDS011;619;51.472;6.628;2023-03-24T11:33:50;5.10;;;2.20;;
1258;SDS011;619;51.472;6.628;2023-03-24T11:47:33;11.03;;;2.30;;
1258;SDS011;619;51.472;6.628;2023-03-24T11:52:35;6.00;;;2.60;;
1258;SDS011;619;51.472;6.628;2023-03-24T11:55:33;5.07;;;2.00;;
1258;SDS011;619;51.472;6.628;2023-03-24T11:58:08;5.13;;;1.90;;
1258;SDS011;619;51.472;6.628;2023-03-24T12:01:02;5.57;;;2.20;;
1258;SDS011;619;51.472;6.628;2023-03-24T12:08:58;6.67;;;2.50;;
1258;SDS011;619;51.472;6.628;2023-03-24T12:11:44;9.90;;;2.10;;
1258;SDS011;619;51.472;6.628;2023-03-24T12:14:21;5.60;;;3.47;;
1258;SDS011;619;51.472;6.628;2023-03-24T12:17:14;8.03;;;2.23;;
1258;SDS011;619;51.472;6.628;2023-03-24T12:41:36;3.93;;;2.27;;
1258;SDS011;619;51.472;6.628;2023-03-24T12:47:06;8.67;;;2.00;;
1258;SDS011;619;51.472;6.628;2023-03-24T12:50:02;5.50;;;1.87;;
1258;SDS011;619;51.472;6.628;2023-03-24T13:03:37;7.70;;;3.20;;
1258;SDS011;619;51.472;6.628;2023-03-24T13:06:10;5.80;;;2.47;;
1258;SDS011;619;51.472;6.628;2023-03-24T13:08:41;5.67;;;3.50;;
1258;SDS011;619;51.472;6.628;2023-03-24T13:11:17;5.17;;;2.30;;
1258;SDS011;619;51.472;6.628;2023-03-24T13:13:44;9.47;;;2.83;;
1258;SDS011;619;51.472;6.628;2023-03-24T13:16:21;10.33;;;2.87;;
1258;SDS011;619;51.472;6.628;2023-03-24T13:18:53;9.03;;;2.57;;
1258;SDS011;619;51.472;6.628;2023-03-24T13:21:24;4.63;;;2.10;;
1258;SDS011;619;51.472;6.628;2023-03-24T13:23:59;5.37;;;2.50;;
1258;SDS011;619;51.472;6.628;2023-03-24T13:34:59;5.03;;;2.90;;
1258;SDS011;619;51.472;6.628;2023-03-24T13:40:29;8.33;;;2.40;;
1258;SDS011;619;51.472;6.628;2023-03-24T13:43:12;7.50;;;1.90;;
1258;SDS011;619;51.472;6.628;2023-03-24T13:45:46;3.63;;;1.20;;
1258;SDS011;619;51.472;6.628;2023-03-24T13:48:18;2.60;;;1.13;;
1258;SDS011;619;51.472;6.628;2023-03-24T13:50:56;2.90;;;1.00;;
1258;SDS011;619;51.472;6.628;2023-03-24T13:53:42;1.93;;;1.30;;
1258;SDS011;619;51.472;6.628;2023-03-24T13:56:22;2.70;;;1.10;;
1258;SDS011;619;51.472;6.628;2023-03-24T14:01:35;3.37;;;1.27;;
1258;SDS011;619;51.472;6.628;2023-03-24T14:04:21;3.73;;;1.10;;
1258;SDS011;619;51.472;6.628;2023-03-24T14:06:58;2.63;;;1.40;;
1258;SDS011;619;51.472;6.628;2023-03-24T14:09:58;2.67;;;1.20;;
1258;SDS011;619;51.472;6.628;2023-03-24T14:12:25;3.43;;;1.17;;
1258;SDS011;619;51.472;6.628;2023-03-24T14:15:13;4.33;;;1.20;;
1258;SDS011;619;51.472;6.628;2023-03-24T14:17:44;1.73;;;0.90;;
1258;SDS011;619;51.472;6.628;2023-03-24T14:20:25;3.50;;;1.27;;
1258;SDS011;619;51.472;6.628;2023-03-24T14:23:02;5.53;;;1.60;;
1258;SDS011;619;51.472;6.628;2023-03-24T14:25:29;4.30;;;1.23;;
1258;SDS011;619;51.472;6.628;2023-03-24T14:28:16;4.63;;;1.40;;
1258;SDS011;619;51.472;6.628;2023-03-24T14:33:27;2.60;;;1.27;;
1258;SDS011;619;51.472;6.628;2023-03-24T14:36:02;1.30;;;0.80;;
1258;SDS011;619;51.472;6.628;2023-03-24T14:38:33;4.23;;;1.20;;
1258;SDS011;619;51.472;6.628;2023-03-24T14:41:11;2.60;;;1.00;;
1258;SDS011;619;51.472;6.628;2023-03-24T14:54:44;6.43;;;1.00;;
1258;SDS011;619;51.472;6.628;2023-03-24T15:02:35;3.43;;;1.50;;
1258;SDS011;619;51.472;6.628;2023-03-24T15:07:40;1.83;;;1.17;;
1258;SDS011;619;51.472;6.628;2023-03-24T15:10:17;3.00;;;1.40;;
1258;SDS011;619;51.472;6.628;2023-03-24T15:12:43;3.83;;;1.63;;
1258;SDS011;619;51.472;6.628;2023-03-24T15:15:17;4.03;;;1.40;;
1258;SDS011;619;51.472;6.628;2023-03-24T15:17:47;3.97;;;1.93;;
1258;SDS011;619;51.472;6.628;2023-03-24T15:20:32;2.60;;;1.33;;
1258;SDS011;619;51.472;6.628;2023-03-24T15:23:07;7.07;;;1.60;;
1258;SDS011;619;51.472;6.628;2023-03-24T15:25:44;4.77;;;1.80;;
1258;SDS011;619;51.472;6.628;2023-03-24T15:28:18;2.90;;;1.60;;
1258;SDS011;619;51.472;6.628;2023-03-24T15:30:54;2.33;;;1.10;;
1258;SDS011;619;51.472;6.628;2023-03-24T15:33:21;2.03;;;1.40;;
1258;SDS011;619;51.472;6.628;2023-03-24T15:35:54;3.97;;;1.77;;
1258;SDS011;619;51.472;6.628;2023-03-24T15:38:27;4.47;;;1.77;;
1258;SDS011;619;51.472;6.628;2023-03-24T15:43:26;2.60;;;1.43;;
1258;SDS011;619;51.472;6.628;2023-03-24T15:45:55;4.47;;;2.60;;
1258;SDS011;619;51.472;6.628;2023-03-24T15:48:29;7.40;;;2.07;;
1258;SDS011;619;51.472;6.628;2023-03-24T15:50:59;2.13;;;1.43;;
1258;SDS011;619;51.472;6.628;2023-03-24T15:56:05;6.03;;;2.87;;
1258;SDS011;619;51.472;6.628;2023-03-24T15:58:54;7.40;;;4.70;;
1258;SDS011;619;51.472;6.628;2023-03-24T16:01:43;6.23;;;2.17;;
1258;SDS011;619;51.472;6.628;2023-03-24T16:04:14;4.50;;;1.90;;
1258;SDS011;619;51.472;6.628;2023-03-24T16:06:44;4.03;;;2.10;;
1258;SDS011;619;51.472;6.628;2023-03-24T16:09:15;3.73;;;1.40;;
1258;SDS011;619;51.472;6.628;2023-03-24T16:11:45;5.00;;;2.13;;
1258;SDS011;619;51.472;6.628;2023-03-24T16:14:19;4.90;;;1.70;;
1258;SDS011;619;51.472;6.628;2023-03-24T16:16:51;2.83;;;1.40;;
1258;SDS011;619;51.472;6.628;2023-03-24T16:19:24;4.40;;;1.60;;
1258;SDS011;619;51.472;6.628;2023-03-24T16:21:49;5.00;;;1.70;;
1258;SDS011;619;51.472;6.628;2023-03-24T16:24:15;4.77;;;1.70;;
1258;SDS011;619;51.472;6.628;2023-03-24T16:26:43;1.73;;;1.00;;
1258;SDS011;619;51.472;6.628;2023-03-24T16:29:15;3.73;;;1.40;;
1258;SDS011;619;51.472;6.628;2023-03-24T16:31:43;1.97;;;1.00;;
1258;SDS011;619;51.472;6.628;2023-03-24T16:34:15;1.87;;;0.90;;
1258;SDS011;619;51.472;6.628;2023-03-24T16:36:47;2.33;;;1.27;;
1258;SDS011;619;51.472;6.628;2023-03-24T16:39:19;2.37;;;1.00;;
1258;SDS011;619;51.472;6.628;2023-03-24T16:41:48;1.43;;;0.80;;
1258;SDS011;619;51.472;6.628;2023-03-24T16:44:14;1.50;;;0.93;;
1258;SDS011;619;51.472;6.628;2023-03-24T16:46:42;3.17;;;1.10;;
1258;SDS011;619;51.472;6.628;2023-03-24T16:49:13;1.73;;;0.77;;
1258;SDS011;619;51.472;6.628;2023-03-24T16:51:40;2.00;;;1.00;;
1258;SDS011;619;51.472;6.628;2023-03-24T16:54:06;3.30;;;1.10;;
1258;SDS011;619;51.472;6.628;2023-03-24T16:56:35;1.70;;;0.90;;
1258;SDS011;619;51.472;6.628;2023-03-24T16:59:02;5.07;;;1.00;;
1258;SDS011;619;51.472;6.628;2023-03-24T17:01:38;2.37;;;0.90;;
1258;SDS011;619;51.472;6.628;2023-03-24T17:06:46;1.80;;;1.03;;
1258;SDS011;619;51.472;6.628;2023-03-24T17:09:16;1.73;;;0.90;;
1258;SDS011;619;51.472;6.628;2023-03-24T17:11:52;3.20;;;1.30;;
1258;SDS011;619;51.472;6.628;2023-03-24T17:14:20;2.13;;;1.07;;
1258;SDS011;619;51.472;6.628;2023-03-24T17:16:46;3.33;;;1.20;;
1258;SDS011;619;51.472;6.628;2023-03-24T17:19:14;3.30;;;1.47;;
1258;SDS011;619;51.472;6.628;2023-03-24T17:21:45;2.43;;;1.20;;
1258;SDS011;619;51.472;6.628;2023-03-24T17:24:16;2.90;;;1.70;;
1258;SDS011;619;51.472;6.628;2023-03-24T17:26:42;3.70;;;1.30;;
1258;SDS011;619;51.472;6.628;2023-03-24T17:29:08;4.00;;;1.30;;
1258;SDS011;619;51.472;6.628;2023-03-24T17:31:36;3.67;;;1.13;;
1258;SDS011;619;51.472;6.628;2023-03-24T17:34:04;3.93;;;1.10;;
1258;SDS011;619;51.472;6.628;2023-03-24T17:36:31;4.07;;;1.33;;
1258;SDS011;619;51.472;6.628;2023-03-24T17:38:57;2.33;;;1.17;;
1258;SDS011;619;51.472;6.628;2023-03-24T17:41:27;2.90;;;1.10;;
1258;SDS011;619;51.472;6.628;2023-03-24T17:43:55;2.30;;;1.13;;
1258;SDS011;619;51.472;6.628;2023-03-24T17:46:23;3.23;;;1.17;;
1258;SDS011;619;51.472;6.628;2023-03-24T17:48:48;5.80;;;1.90;;
1258;SDS011;619;51.472;6.628;2023-03-24T17:51:16;3.10;;;1.60;;
1258;SDS011;619;51.472;6.628;2023-03-24T17:53:47;3.13;;;1.73;;
1258;SDS011;619;51.472;6.628;2023-03-24T17:56:12;3.67;;;1.50;;
1258;SDS011;619;51.472;6.628;2023-03-24T17:58:40;4.57;;;2.80;;
1258;SDS011;619;51.472;6.628;2023-03-24T18:01:13;3.70;;;2.63;;
1258;SDS011;619;51.472;6.628;2023-03-24T18:03:44;3.33;;;3.03;;
1258;SDS011;619;51.472;6.628;2023-03-24T18:06:13;3.23;;;2.50;;
1258;SDS011;619;51.472;6.628;2023-03-24T18:08:45;2.53;;;1.90;;
1258;SDS011;619;51.472;6.628;2023-03-24T18:11:16;3.23;;;1.43;;
1258;SDS011;619;51.472;6.628;2023-03-24T18:13:44;3.93;;;2.17;;
1258;SDS011;619;51.472;6.628;2023-03-24T18:16:15;5.50;;;1.60;;
1258;SDS011;619;51.472;6.628;2023-03-24T18:18:41;2.53;;;1.57;;
1258;SDS011;619;51.472;6.628;2023-03-24T18:21:10;1.90;;;1.10;;
1258;SDS011;619;51.472;6.628;2023-03-24T18:23:38;2.40;;;1.40;;
1258;SDS011;619;51.472;6.628;2023-03-24T18:26:06;1.87;;;1.10;;
1258;SDS011;619;51.472;6.628;2023-03-24T18:28:35;3.40;;;1.30;;
1258;SDS011;619;51.472;6.628;2023-03-24T18:31:07;3.30;;;1.57;;
1258;SDS011;619;51.472;6.628;2023-03-24T18:33:39;2.50;;;1.60;;
1258;SDS011;619;51.472;6.628;2023-03-24T18:36:07;4.40;;;1.30;;
1258;SDS011;619;51.472;6.628;2023-03-24T18:38:34;3.00;;;1.60;;
1258;SDS011;619;51.472;6.628;2023-03-24T18:41:02;3.67;;;1.50;;
1258;SDS011;619;51.472;6.628;2023-03-24T18:43:30;2.93;;;1.20;;
1258;SDS011;619;51.472;6.628;2023-03-24T18:45:58;3.20;;;1.60;;
1258;SDS011;619;51.472;6.628;2023-03-24T18:48:29;2.67;;;1.20;;
1258;SDS011;619;51.472;6.628;2023-03-24T18:50:55;4.07;;;1.50;;
1258;SDS011;619;51.472;6.628;2023-03-24T18:53:25;4.60;;;1.50;;
1258;SDS011;619;51.472;6.628;2023-03-24T18:55:53;2.97;;;1.30;;
1258;SDS011;619;51.472;6.628;2023-03-24T18:58:18;4.30;;;1.70;;
1258;SDS011;619;51.472;6.628;2023-03-24T19:00:48;6.00;;;1.40;;
1258;SDS011;619;51.472;6.628;2023-03-24T19:03:15;3.07;;;1.50;;
1258;SDS011;619;51.472;6.628;2023-03-24T19:05:44;4.10;;;1.70;;
1258;SDS011;619;51.472;6.628;2023-03-24T19:08:10;5.83;;;1.50;;
1258;SDS011;619;51.472;6.628;2023-03-24T19:10:41;3.37;;;1.30;;
1258;SDS011;619;51.472;6.628;2023-03-24T19:13:12;5.47;;;2.60;;
1258;SDS011;619;51.472;6.628;2023-03-24T19:15:44;5.20;;;1.73;;
1258;SDS011;619;51.472;6.628;2023-03-24T19:18:10;4.97;;;2.13;;
1258;SDS011;619;51.472;6.628;2023-03-24T19:20:38;6.10;;;2.23;;